sensor_id;sensor_type;location;lat;lon;timestamp;pressure;altitude;pressure_sealevel;temperature;humidity
80892;BME280;70343;51.530;5.050;2023-11-21T00:00:37;101071.41;;;7.05;100.00
80892;BME280;70343;51.530;5.050;2023-11-21T00:03:02;101068.81;;;7.05;100.00
80892;BME280;70343;51.530;5.050;2023-11-21T00:05:29;101069.81;;;7.04;100.00
80892;BME280;70343;51.530;5.050;2023-11-21T00:07:54;101072.53;;;7.02;100.00
80892;BME280;70343;51.530;5.050;2023-11-21T00:10:20;101071.75;;;7.02;100.00
80892;BME280;70343;51.530;5.050;2023-11-21T00:12:46;101069.16;;;7.02;100.00
80892;BME280;70343;51.530;5.050;2023-11-21T00:15:13;101081.28;;;7.01;100.00
80892;BME280;70343;51.530;5.050;2023-11-21T00:17:39;101080.63;;;6.99;100.00
80892;BME280;70343;51.530;5.050;2023-11-21T00:20:06;101079.97;;;6.97;100.00
80892;BME280;70343;51.530;5.050;2023-11-21T00:22:35;101068.78;;;6.97;100.00
80892;BME280;70343;51.530;5.050;2023-11-21T00:25:01;101078.50;;;6.95;100.00
80892;BME280;70343;51.530;5.050;2023-11-21T00:27:29;101070.41;;;6.90;100.00
80892;BME280;70343;51.530;5.050;2023-11-21T00:29:55;101076.72;;;6.87;100.00
80892;BME280;70343;51.530;5.050;2023-11-21T00:32:20;101081.41;;;6.84;100.00
80892;BME280;70343;51.530;5.050;2023-11-21T00:34:46;101077.50;;;6.80;100.00
80892;BME280;70343;51.530;5.050;2023-11-21T00:37:11;101079.91;;;6.73;100.00
80892;BME280;70343;51.530;5.050;2023-11-21T00:39:37;101079.25;;;6.71;100.00
80892;BME280;70343;51.530;5.050;2023-11-21T00:42:02;101078.59;;;6.69;100.00
80892;BME280;70343;51.530;5.050;2023-11-21T00:44:30;101082.34;;;6.67;100.00
80892;BME280;70343;51.530;5.050;2023-11-21T00:46:55;101080.88;;;6.64;100.00
80892;BME280;70343;51.530;5.050;2023-11-21T00:49:21;101087.16;;;6.62;100.00
80892;BME280;70343;51.530;5.050;2023-11-21T00:51:48;101086.34;;;6.61;100.00
80892;BME280;70343;51.530;5.050;2023-11-21T00:54:14;101086.34;;;6.61;100.00
80892;BME280;70343;51.530;5.050;2023-11-21T00:56:43;101081.03;;;6.63;100.00
80892;BME280;70343;51.530;5.050;2023-11-21T00:59:08;101090.41;;;6.64;100.00
80892;BME280;70343;51.530;5.050;2023-11-21T01:01:34;101085.72;;;6.67;100.00
80892;BME280;70343;51.530;5.050;2023-11-21T01:03:59;101089.97;;;6.68;100.00
80892;BME280;70343;51.530;5.050;2023-11-21T01:06:25;101096.75;;;6.69;100.00
80892;BME280;70343;51.530;5.050;2023-11-21T01:08:51;101094.50;;;6.74;100.00
80892;BME280;70343;51.530;5.050;2023-11-21T01:11:16;101094.34;;;6.76;100.00
80892;BME280;70343;51.530;5.050;2023-11-21T01:13:42;101116.69;;;6.77;100.00
80892;BME280;70343;51.530;5.050;2023-11-21T01:16:10;101107.63;;;6.81;100.00
80892;BME280;70343;51.530;5.050;2023-11-21T01:18:35;101109.44;;;6.80;100.00
80892;BME280;70343;51.530;5.050;2023-11-21T01:21:01;101113.97;;;6.78;100.00
80892;BME280;70343;51.530;5.050;2023-11-21T01:23:27;101112.66;;;6.74;100.00
80892;BME280;70343;51.530;5.050;2023-11-21T01:25:53;101116.19;;;6.73;100.00
80892;BME280;70343;51.530;5.050;2023-11-21T01:28:18;101118.28;;;6.70;100.00
80892;BME280;70343;51.530;5.050;2023-11-21T01:30:45;101123.16;;;6.65;100.00
80892;BME280;70343;51.530;5.050;2023-11-21T01:33:11;101124.75;;;6.66;100.00
80892;BME280;70343;51.530;5.050;2023-11-21T01:35:37;101122.97;;;6.66;100.00
80892;BME280;70343;51.530;5.050;2023-11-21T01:38:02;101125.75;;;6.65;100.00
80892;BME280;70343;51.530;5.050;2023-11-21T01:40:29;101124.25;;;6.62;100.00
80892;BME280;70343;51.530;5.050;2023-11-21T01:42:56;101131.84;;;6.56;100.00
80892;BME280;70343;51.530;5.050;2023-11-21T01:45:22;101142.06;;;6.57;100.00
80892;BME280;70343;51.530;5.050;2023-11-21T01:47:50;101134.59;;;6.54;100.00
80892;BME280;70343;51.530;5.050;2023-11-21T01:50:16;101135.69;;;6.52;100.00
80892;BME280;70343;51.530;5.050;2023-11-21T01:52:46;101144.28;;;6.52;100.00
80892;BME280;70343;51.530;5.050;2023-11-21T01:55:14;101149.03;;;6.57;100.00
80892;BME280;70343;51.530;5.050;2023-11-21T01:57:42;101151.91;;;6.54;100.00
80892;BME280;70343;51.530;5.050;2023-11-21T02:00:08;101155.94;;;6.48;100.00
80892;BME280;70343;51.530;5.050;2023-11-21T02:02:45;101151.78;;;6.55;100.00
80892;BME280;70343;51.530;5.050;2023-11-21T02:05:12;101158.50;;;6.48;100.00
80892;BME280;70343;51.530;5.050;2023-11-21T02:07:39;101157.84;;;6.46;100.00
80892;BME280;70343;51.530;5.050;2023-11-21T02:10:07;101156.41;;;6.44;100.00
80892;BME280;70343;51.530;5.050;2023-11-21T02:12:33;101156.88;;;6.39;100.00
80892;BME280;70343;51.530;5.050;2023-11-21T02:15:02;101163.97;;;6.37;100.00
80892;BME280;70343;51.530;5.050;2023-11-21T02:17:31;101159.25;;;6.32;100.00
80892;BME280;70343;51.530;5.050;2023-11-21T02:19:58;101164.91;;;6.36;100.00
80892;BME280;70343;51.530;5.050;2023-11-21T02:22:27;101162.19;;;6.38;100.00
80892;BME280;70343;51.530;5.050;2023-11-21T02:24:54;101167.06;;;6.41;100.00
80892;BME280;70343;51.530;5.050;2023-11-21T02:27:20;101173.72;;;6.43;100.00
80892;BME280;70343;51.530;5.050;2023-11-21T02:29:48;101179.84;;;6.42;100.00
80892;BME280;70343;51.530;5.050;2023-11-21T02:32:14;101182.81;;;6.47;100.00
80892;BME280;70343;51.530;5.050;2023-11-21T02:34:39;101180.50;;;6.44;100.00
80892;BME280;70343;51.530;5.050;2023-11-21T02:37:05;101168.69;;;6.42;100.00
80892;BME280;70343;51.530;5.050;2023-11-21T02:39:31;101175.16;;;6.46;100.00
80892;BME280;70343;51.530;5.050;2023-11-21T02:41:57;101175.53;;;6.51;100.00
80892;BME280;70343;51.530;5.050;2023-11-21T02:44:22;101178.09;;;6.43;100.00
80892;BME280;70343;51.530;5.050;2023-11-21T02:46:48;101177.59;;;6.39;100.00
80892;BME280;70343;51.530;5.050;2023-11-21T02:49:13;101179.56;;;6.45;100.00
80892;BME280;70343;51.530;5.050;2023-11-21T02:51:39;101173.13;;;6.49;100.00
80892;BME280;70343;51.530;5.050;2023-11-21T02:54:06;101163.41;;;6.51;100.00
80892;BME280;70343;51.530;5.050;2023-11-21T02:56:33;101169.38;;;6.52;100.00
80892;BME280;70343;51.530;5.050;2023-11-21T02:59:00;101167.44;;;6.54;100.00
80892;BME280;70343;51.530;5.050;2023-11-21T03:01:26;101165.34;;;6.49;100.00
80892;BME280;70343;51.530;5.050;2023-11-21T03:03:53;101156.41;;;6.44;100.00
80892;BME280;70343;51.530;5.050;2023-11-21T03:06:19;101172.59;;;6.46;100.00
80892;BME280;70343;51.530;5.050;2023-11-21T03:08:45;101171.19;;;6.51;100.00
80892;BME280;70343;51.530;5.050;2023-11-21T03:11:11;101171.19;;;6.51;100.00
80892;BME280;70343;51.530;5.050;2023-11-21T03:13:39;101174.44;;;6.53;100.00
80892;BME280;70343;51.530;5.050;2023-11-21T03:16:10;101179.94;;;6.58;100.00
80892;BME280;70343;51.530;5.050;2023-11-21T03:18:36;101172.34;;;6.57;100.00
80892;BME280;70343;51.530;5.050;2023-11-21T03:21:03;101192.56;;;6.53;100.00
80892;BME280;70343;51.530;5.050;2023-11-21T03:23:28;101190.16;;;6.60;100.00
80892;BME280;70343;51.530;5.050;2023-11-21T03:25:54;101185.13;;;6.58;100.00
80892;BME280;70343;51.530;5.050;2023-11-21T03:28:19;101186.13;;;6.65;100.00
80892;BME280;70343;51.530;5.050;2023-11-21T03:30:45;101180.59;;;6.60;100.00
80892;BME280;70343;51.530;5.050;2023-11-21T03:33:10;101182.38;;;6.60;100.00
80892;BME280;70343;51.530;5.050;2023-11-21T03:35:36;101185.47;;;6.63;100.00
80892;BME280;70343;51.530;5.050;2023-11-21T03:38:02;101184.19;;;6.59;100.00
80892;BME280;70343;51.530;5.050;2023-11-21T03:40:28;101200.69;;;6.58;100.00
80892;BME280;70343;51.530;5.050;2023-11-21T03:42:54;101197.63;;;6.63;100.00
80892;BME280;70343;51.530;5.050;2023-11-21T03:45:19;101203.97;;;6.68;100.00
80892;BME280;70343;51.530;5.050;2023-11-21T03:47:46;101199.91;;;6.66;100.00
80892;BME280;70343;51.530;5.050;2023-11-21T03:50:12;101187.44;;;6.69;100.00
80892;BME280;70343;51.530;5.050;2023-11-21T03:52:37;101197.69;;;6.71;100.00
80892;BME280;70343;51.530;5.050;2023-11-21T03:55:03;101194.25;;;6.70;100.00
80892;BME280;70343;51.530;5.050;2023-11-21T03:57:29;101195.38;;;6.68;100.00
80892;BME280;70343;51.530;5.050;2023-11-21T03:59:54;101207.66;;;6.66;100.00
80892;BME280;70343;51.530;5.050;2023-11-21T04:02:20;101205.25;;;6.64;100.00
80892;BME280;70343;51.530;5.050;2023-11-21T04:04:45;101203.16;;;6.68;100.00
80892;BME280;70343;51.530;5.050;2023-11-21T04:07:11;101208.50;;;6.66;100.00
80892;BME280;70343;51.530;5.050;2023-11-21T04:09:39;101207.38;;;6.69;100.00
80892;BME280;70343;51.530;5.050;2023-11-21T04:12:04;101216.94;;;6.68;100.00
80892;BME280;70343;51.530;5.050;2023-11-21T04:14:30;101222.94;;;6.69;100.00
80892;BME280;70343;51.530;5.050;2023-11-21T04:16:56;101223.59;;;6.71;100.00
80892;BME280;70343;51.530;5.050;2023-11-21T04:19:21;101230.53;;;6.70;100.00
80892;BME280;70343;51.530;5.050;2023-11-21T04:21:47;101240.59;;;6.73;100.00
80892;BME280;70343;51.530;5.050;2023-11-21T04:24:12;101247.25;;;6.76;100.00
80892;BME280;70343;51.530;5.050;2023-11-21T04:26:38;101251.00;;;6.81;100.00
80892;BME280;70343;51.530;5.050;2023-11-21T04:29:04;101255.22;;;6.82;100.00
80892;BME280;70343;51.530;5.050;2023-11-21T04:31:30;101257.00;;;6.82;100.00
80892;BME280;70343;51.530;5.050;2023-11-21T04:33:56;101262.81;;;6.76;100.00
80892;BME280;70343;51.530;5.050;2023-11-21T04:36:21;101269.13;;;6.81;100.00
80892;BME280;70343;51.530;5.050;2023-11-21T04:38:46;101259.28;;;6.85;100.00
80892;BME280;70343;51.530;5.050;2023-11-21T04:41:12;101270.16;;;6.88;100.00
80892;BME280;70343;51.530;5.050;2023-11-21T04:43:38;101261.56;;;6.88;100.00
80892;BME280;70343;51.530;5.050;2023-11-21T04:46:03;101266.16;;;6.94;100.00
80892;BME280;70343;51.530;5.050;2023-11-21T04:48:29;101267.59;;;6.96;100.00
80892;BME280;70343;51.530;5.050;2023-11-21T04:50:54;101276.03;;;6.98;100.00
80892;BME280;70343;51.530;5.050;2023-11-21T04:53:20;101273.41;;;6.90;100.00
80892;BME280;70343;51.530;5.050;2023-11-21T04:55:45;101275.53;;;6.95;100.00
80892;BME280;70343;51.530;5.050;2023-11-21T04:58:12;101274.41;;;6.97;100.00
80892;BME280;70343;51.530;5.050;2023-11-21T05:00:38;101280.91;;;7.01;100.00
80892;BME280;70343;51.530;5.050;2023-11-21T05:03:03;101275.56;;;7.03;100.00
80892;BME280;70343;51.530;5.050;2023-11-21T05:05:30;101278.00;;;7.04;100.00
80892;BME280;70343;51.530;5.050;2023-11-21T05:07:55;101279.66;;;7.05;100.00
80892;BME280;70343;51.530;5.050;2023-11-21T05:10:21;101277.06;;;7.05;100.00
80892;BME280;70343;51.530;5.050;2023-11-21T05:12:49;101280.31;;;7.07;100.00
80892;BME280;70343;51.530;5.050;2023-11-21T05:15:17;101276.72;;;7.08;100.00
80892;BME280;70343;51.530;5.050;2023-11-21T05:17:43;101288.75;;;7.09;100.00
80892;BME280;70343;51.530;5.050;2023-11-21T05:20:10;101290.50;;;7.09;100.00
80892;BME280;70343;51.530;5.050;2023-11-21T05:22:37;101295.53;;;7.10;100.00
80892;BME280;70343;51.530;5.050;2023-11-21T05:25:03;101298.97;;;7.11;100.00
80892;BME280;70343;51.530;5.050;2023-11-21T05:27:29;101299.63;;;7.13;100.00
80892;BME280;70343;51.530;5.050;2023-11-21T05:29:56;101302.88;;;7.15;100.00
80892;BME280;70343;51.530;5.050;2023-11-21T05:32:23;101303.03;;;7.13;100.00
80892;BME280;70343;51.530;5.050;2023-11-21T05:34:49;101298.97;;;7.11;100.00
80892;BME280;70343;51.530;5.050;2023-11-21T05:37:14;101307.56;;;7.11;100.00
80892;BME280;70343;51.530;5.050;2023-11-21T05:39:40;101311.91;;;7.11;100.00
80892;BME280;70343;51.530;5.050;2023-11-21T05:42:05;101316.94;;;7.12;100.00
80892;BME280;70343;51.530;5.050;2023-11-21T05:44:31;101319.53;;;7.12;100.00
80892;BME280;70343;51.530;5.050;2023-11-21T05:46:57;101324.44;;;7.15;100.00
80892;BME280;70343;51.530;5.050;2023-11-21T05:49:24;101324.56;;;7.14;100.00
80892;BME280;70343;51.530;5.050;2023-11-21T05:51:54;101331.06;;;7.18;100.00
80892;BME280;70343;51.530;5.050;2023-11-21T05:54:19;101330.94;;;7.19;100.00
80892;BME280;70343;51.530;5.050;2023-11-21T05:56:45;101332.88;;;7.17;100.00
80892;BME280;70343;51.530;5.050;2023-11-21T05:59:12;101336.41;;;7.16;100.00
80892;BME280;70343;51.530;5.050;2023-11-21T06:01:37;101340.66;;;7.17;100.00
80892;BME280;70343;51.530;5.050;2023-11-21T06:04:04;101346.63;;;7.18;100.00
80892;BME280;70343;51.530;5.050;2023-11-21T06:06:30;101339.84;;;7.17;100.00
80892;BME280;70343;51.530;5.050;2023-11-21T06:08:57;101352.31;;;7.13;100.00
80892;BME280;70343;51.530;5.050;2023-11-21T06:11:22;101348.88;;;7.13;100.00
80892;BME280;70343;51.530;5.050;2023-11-21T06:13:48;101357.47;;;7.13;100.00
80892;BME280;70343;51.530;5.050;2023-11-21T06:16:15;101355.56;;;7.15;100.00
80892;BME280;70343;51.530;5.050;2023-11-21T06:18:42;101360.41;;;7.18;100.00
80892;BME280;70343;51.530;5.050;2023-11-21T06:21:09;101368.69;;;7.22;100.00
80892;BME280;70343;51.530;5.050;2023-11-21T06:23:35;101363.38;;;7.24;100.00
80892;BME280;70343;51.530;5.050;2023-11-21T06:26:00;101359.81;;;7.25;100.00
80892;BME280;70343;51.530;5.050;2023-11-21T06:28:26;101371.50;;;7.29;100.00
80892;BME280;70343;51.530;5.050;2023-11-21T06:30:52;101368.91;;;7.29;100.00
80892;BME280;70343;51.530;5.050;2023-11-21T06:33:18;101374.91;;;7.29;100.00
80892;BME280;70343;51.530;5.050;2023-11-21T06:35:45;101379.94;;;7.31;100.00
80892;BME280;70343;51.530;5.050;2023-11-21T06:38:10;101375.56;;;7.31;100.00
80892;BME280;70343;51.530;5.050;2023-11-21T06:40:36;101379.63;;;7.34;100.00
80892;BME280;70343;51.530;5.050;2023-11-21T06:43:01;101384.50;;;7.37;100.00
80892;BME280;70343;51.530;5.050;2023-11-21T06:45:27;101385.34;;;7.37;100.00
80892;BME280;70343;51.530;5.050;2023-11-21T06:47:52;101393.91;;;7.38;100.00
80892;BME280;70343;51.530;5.050;2023-11-21T06:50:18;101387.78;;;7.39;100.00
80892;BME280;70343;51.530;5.050;2023-11-21T06:52:44;101382.59;;;7.39;100.00
80892;BME280;70343;51.530;5.050;2023-11-21T06:55:09;101389.38;;;7.40;100.00
80892;BME280;70343;51.530;5.050;2023-11-21T06:57:35;101395.22;;;7.42;100.00
80892;BME280;70343;51.530;5.050;2023-11-21T07:00:01;101400.25;;;7.43;100.00
80892;BME280;70343;51.530;5.050;2023-11-21T07:02:27;101399.16;;;7.46;100.00
80892;BME280;70343;51.530;5.050;2023-11-21T07:04:53;101404.03;;;7.49;100.00
80892;BME280;70343;51.530;5.050;2023-11-21T07:07:19;101407.28;;;7.51;100.00
80892;BME280;70343;51.530;5.050;2023-11-21T07:09:44;101408.75;;;7.53;100.00
80892;BME280;70343;51.530;5.050;2023-11-21T07:12:10;101408.63;;;7.55;100.00
80892;BME280;70343;51.530;5.050;2023-11-21T07:14:36;101422.38;;;7.55;100.00
80892;BME280;70343;51.530;5.050;2023-11-21T07:17:04;101417.56;;;7.60;100.00
80892;BME280;70343;51.530;5.050;2023-11-21T07:19:30;101418.06;;;7.64;100.00
80892;BME280;70343;51.530;5.050;2023-11-21T07:21:56;101427.81;;;7.70;100.00
80892;BME280;70343;51.530;5.050;2023-11-21T07:24:21;101427.66;;;7.71;100.00
80892;BME280;70343;51.530;5.050;2023-11-21T07:26:48;101429.44;;;7.71;100.00
80892;BME280;70343;51.530;5.050;2023-11-21T07:29:14;101434.31;;;7.74;100.00
80892;BME280;70343;51.530;5.050;2023-11-21T07:31:39;101425.88;;;7.72;100.00
80892;BME280;70343;51.530;5.050;2023-11-21T07:34:06;101440.00;;;7.77;100.00
80892;BME280;70343;51.530;5.050;2023-11-21T07:36:33;101438.91;;;7.80;100.00
80892;BME280;70343;51.530;5.050;2023-11-21T07:38:59;101443.75;;;7.83;100.00
80892;BME280;70343;51.530;5.050;2023-11-21T07:41:24;101441.16;;;7.83;100.00
80892;BME280;70343;51.530;5.050;2023-11-21T07:43:50;101447.69;;;7.87;100.00
80892;BME280;70343;51.530;5.050;2023-11-21T07:46:15;101458.72;;;7.89;100.00
80892;BME280;70343;51.530;5.050;2023-11-21T07:48:42;101463.59;;;7.92;100.00
80892;BME280;70343;51.530;5.050;2023-11-21T07:51:09;101461.66;;;7.94;100.00
80892;BME280;70343;51.530;5.050;2023-11-21T07:53:35;101469.16;;;7.97;100.00
80892;BME280;70343;51.530;5.050;2023-11-21T07:56:05;101468.16;;;7.98;100.00
80892;BME280;70343;51.530;5.050;2023-11-21T07:58:31;101471.13;;;8.03;100.00
80892;BME280;70343;51.530;5.050;2023-11-21T08:00:59;101482.00;;;8.06;100.00
80892;BME280;70343;51.530;5.050;2023-11-21T08:03:25;101479.91;;;8.10;100.00
80892;BME280;70343;51.530;5.050;2023-11-21T08:05:52;101486.56;;;8.13;100.00
80892;BME280;70343;51.530;5.050;2023-11-21T08:08:18;101491.97;;;8.19;100.00
80892;BME280;70343;51.530;5.050;2023-11-21T08:10:44;101491.97;;;8.19;100.00
80892;BME280;70343;51.530;5.050;2023-11-21T08:13:28;101490.97;;;8.20;100.00
80892;BME280;70343;51.530;5.050;2023-11-21T08:15:54;101498.44;;;8.23;100.00
80892;BME280;70343;51.530;5.050;2023-11-21T08:18:21;101496.53;;;8.25;100.00
80892;BME280;70343;51.530;5.050;2023-11-21T08:20:46;101499.78;;;8.27;100.00
80892;BME280;70343;51.530;5.050;2023-11-21T08:23:14;101509.06;;;8.30;100.00
80892;BME280;70343;51.530;5.050;2023-11-21T08:25:41;101511.66;;;8.30;100.00
80892;BME280;70343;51.530;5.050;2023-11-21T08:28:07;101514.09;;;8.31;100.00
80892;BME280;70343;51.530;5.050;2023-11-21T08:30:33;101517.06;;;8.36;100.00
80892;BME280;70343;51.530;5.050;2023-11-21T08:32:58;101519.97;;;8.41;100.00
80892;BME280;70343;51.530;5.050;2023-11-21T08:35:24;101524.88;;;8.44;100.00
80892;BME280;70343;51.530;5.050;2023-11-21T08:37:53;101531.22;;;8.50;100.00
80892;BME280;70343;51.530;5.050;2023-11-21T08:40:19;101531.72;;;8.53;100.00
80892;BME280;70343;51.530;5.050;2023-11-21T08:42:46;101532.22;;;8.57;100.00
80892;BME280;70343;51.530;5.050;2023-11-21T08:45:12;101534.34;;;8.61;100.00
80892;BME280;70343;51.530;5.050;2023-11-21T08:47:38;101537.44;;;8.65;100.00
80892;BME280;70343;51.530;5.050;2023-11-21T08:50:06;101536.47;;;8.66;100.00
80892;BME280;70343;51.530;5.050;2023-11-21T08:52:33;101536.97;;;8.69;100.00
80892;BME280;70343;51.530;5.050;2023-11-21T08:54:59;101529.00;;;8.71;100.00
80892;BME280;70343;51.530;5.050;2023-11-21T08:57:28;101544.78;;;8.77;100.00
80892;BME280;70343;51.530;5.050;2023-11-21T08:59:54;101542.69;;;8.81;100.00
80892;BME280;70343;51.530;5.050;2023-11-21T09:02:22;101536.50;;;8.82;100.00
80892;BME280;70343;51.530;5.050;2023-11-21T09:04:49;101546.75;;;8.83;100.00
80892;BME280;70343;51.530;5.050;2023-11-21T09:07:14;101547.06;;;8.88;100.00
80892;BME280;70343;51.530;5.050;2023-11-21T09:09:40;101547.91;;;8.89;100.00
80892;BME280;70343;51.530;5.050;2023-11-21T09:12:06;101549.84;;;8.95;100.00
80892;BME280;70343;51.530;5.050;2023-11-21T09:14:31;101550.66;;;9.04;100.00
80892;BME280;70343;51.530;5.050;2023-11-21T09:16:57;101559.59;;;9.09;100.00
80892;BME280;70343;51.530;5.050;2023-11-21T09:19:22;101557.19;;;9.16;100.00
80892;BME280;70343;51.530;5.050;2023-11-21T09:21:48;101562.38;;;9.24;100.00
80892;BME280;70343;51.530;5.050;2023-11-21T09:24:14;101565.66;;;9.34;100.00
80892;BME280;70343;51.530;5.050;2023-11-21T09:26:40;101570.22;;;9.48;100.00
80892;BME280;70343;51.530;5.050;2023-11-21T09:29:06;101572.47;;;9.59;100.00
80892;BME280;70343;51.530;5.050;2023-11-21T09:31:33;101582.22;;;9.65;100.00
80892;BME280;70343;51.530;5.050;2023-11-21T09:33:59;101583.84;;;9.66;100.00
80892;BME280;70343;51.530;5.050;2023-11-21T09:36:24;101585.50;;;9.67;100.00
80892;BME280;70343;51.530;5.050;2023-11-21T09:38:53;101583.38;;;9.62;100.00
80892;BME280;70343;51.530;5.050;2023-11-21T09:41:50;101587.75;;;9.62;100.00
80892;BME280;70343;51.530;5.050;2023-11-21T09:44:28;101592.66;;;9.65;100.00
80892;BME280;70343;51.530;5.050;2023-11-21T09:46:57;101599.47;;;9.66;100.00
80892;BME280;70343;51.530;5.050;2023-11-21T09:49:26;101600.75;;;9.70;100.00
80892;BME280;70343;51.530;5.050;2023-11-21T09:51:54;101599.13;;;9.85;100.00
80892;BME280;70343;51.530;5.050;2023-11-21T09:54:21;101601.72;;;9.85;100.00
80892;BME280;70343;51.530;5.050;2023-11-21T09:56:48;101603.66;;;9.91;100.00
80892;BME280;70343;51.530;5.050;2023-11-21T09:59:15;101601.41;;;9.96;100.00
80892;BME280;70343;51.530;5.050;2023-11-21T10:01:42;101605.94;;;10.02;100.00
80892;BME280;70343;51.530;5.050;2023-11-21T10:04:08;101608.56;;;10.02;100.00
80892;BME280;70343;51.530;5.050;2023-11-21T10:06:40;101614.41;;;10.04;100.00
80892;BME280;70343;51.530;5.050;2023-11-21T10:09:12;101612.44;;;10.06;100.00
80892;BME280;70343;51.530;5.050;2023-11-21T10:11:42;101615.72;;;10.08;100.00
80892;BME280;70343;51.530;5.050;2023-11-21T10:14:12;101618.63;;;10.13;100.00
80892;BME280;70343;51.530;5.050;2023-11-21T10:16:40;101628.72;;;10.16;100.00
80892;BME280;70343;51.530;5.050;2023-11-21T10:19:09;101631.66;;;10.21;100.00
80892;BME280;70343;51.530;5.050;2023-11-21T10:21:35;101627.25;;;10.22;100.00
80892;BME280;70343;51.530;5.050;2023-11-21T10:24:01;101641.88;;;10.31;100.00
80892;BME280;70343;51.530;5.050;2023-11-21T10:26:29;101640.09;;;10.39;100.00
80892;BME280;70343;51.530;5.050;2023-11-21T10:29:01;101644.63;;;10.45;100.00
80892;BME280;70343;51.530;5.050;2023-11-21T10:31:31;101654.25;;;10.45;100.00
80892;BME280;70343;51.530;5.050;2023-11-21T10:34:16;101662.56;;;10.40;100.00
80892;BME280;70343;51.530;5.050;2023-11-21T10:36:42;101663.22;;;10.34;100.00
80892;BME280;70343;51.530;5.050;2023-11-21T10:39:08;101664.53;;;10.30;100.00
80892;BME280;70343;51.530;5.050;2023-11-21T10:41:35;101658.19;;;10.25;100.00
80892;BME280;70343;51.530;5.050;2023-11-21T10:44:01;101661.28;;;10.20;100.00
80892;BME280;70343;51.530;5.050;2023-11-21T10:46:29;101673.34;;;10.21;100.00
80892;BME280;70343;51.530;5.050;2023-11-21T10:48:55;101671.41;;;10.23;100.00
80892;BME280;70343;51.530;5.050;2023-11-21T10:51:21;101668.16;;;10.21;100.00
80892;BME280;70343;51.530;5.050;2023-11-21T10:53:47;101666.84;;;10.25;100.00
80892;BME280;70343;51.530;5.050;2023-11-21T10:56:18;101659.84;;;10.26;100.00
80892;BME280;70343;51.530;5.050;2023-11-21T10:58:50;101655.41;;;10.26;100.00
80892;BME280;70343;51.530;5.050;2023-11-21T11:01:19;101649.25;;;10.27;100.00
80892;BME280;70343;51.530;5.050;2023-11-21T11:03:47;101658.66;;;10.28;100.00
80892;BME280;70343;51.530;5.050;2023-11-21T11:06:14;101661.59;;;10.33;100.00
80892;BME280;70343;51.530;5.050;2023-11-21T11:08:40;101667.13;;;10.30;100.00
80892;BME280;70343;51.530;5.050;2023-11-21T11:11:06;101675.94;;;10.29;100.00
80892;BME280;70343;51.530;5.050;2023-11-21T11:13:32;101668.44;;;10.34;100.00
80892;BME280;70343;51.530;5.050;2023-11-21T11:15:59;101681.63;;;10.41;100.00
80892;BME280;70343;51.530;5.050;2023-11-21T11:18:28;101690.22;;;10.49;100.00
80892;BME280;70343;51.530;5.050;2023-11-21T11:21:15;101682.72;;;10.62;100.00
80892;BME280;70343;51.530;5.050;2023-11-21T11:23:59;101690.31;;;10.80;100.00
80892;BME280;70343;51.530;5.050;2023-11-21T11:31:40;101697.72;;;10.99;100.00
80892;BME280;70343;51.530;5.050;2023-11-21T11:36:52;101705.53;;;10.99;100.00
80892;BME280;70343;51.530;5.050;2023-11-21T11:39:50;101701.03;;;10.85;100.00
80892;BME280;70343;51.530;5.050;2023-11-21T11:42:19;101708.03;;;10.85;100.00
80892;BME280;70343;51.530;5.050;2023-11-21T11:47:25;101710.19;;;10.73;100.00
80892;BME280;70343;51.530;5.050;2023-11-21T11:50:08;101721.81;;;10.70;100.00
80892;BME280;70343;51.530;5.050;2023-11-21T11:52:49;101714.00;;;10.62;100.00
80892;BME280;70343;51.530;5.050;2023-11-21T11:55:21;101713.38;;;10.52;100.00
80892;BME280;70343;51.530;5.050;2023-11-21T11:57:51;101722.50;;;10.48;100.00
80892;BME280;70343;51.530;5.050;2023-11-21T12:00:36;101732.47;;;10.45;100.00
80892;BME280;70343;51.530;5.050;2023-11-21T12:03:08;101726.44;;;10.44;100.00
80892;BME280;70343;51.530;5.050;2023-11-21T12:05:35;101730.50;;;10.47;100.00
80892;BME280;70343;51.530;5.050;2023-11-21T12:08:05;101729.22;;;10.43;100.00
80892;BME280;70343;51.530;5.050;2023-11-21T12:10:34;101734.59;;;10.41;100.00
80892;BME280;70343;51.530;5.050;2023-11-21T12:13:08;101738.50;;;10.37;100.00
80892;BME280;70343;51.530;5.050;2023-11-21T12:15:36;101735.25;;;10.43;100.00
80892;BME280;70343;51.530;5.050;2023-11-21T12:18:02;101732.00;;;10.41;100.00
80892;BME280;70343;51.530;5.050;2023-11-21T12:20:29;101739.94;;;10.40;100.00
80892;BME280;70343;51.530;5.050;2023-11-21T12:22:59;101736.56;;;10.39;100.00
80892;BME280;70343;51.530;5.050;2023-11-21T12:25:30;101750.53;;;10.38;100.00
80892;BME280;70343;51.530;5.050;2023-11-21T12:27:59;101748.28;;;10.35;100.00
80892;BME280;70343;51.530;5.050;2023-11-21T12:30:27;101751.53;;;10.37;100.00
80892;BME280;70343;51.530;5.050;2023-11-21T12:33:01;101759.69;;;10.34;100.00
80892;BME280;70343;51.530;5.050;2023-11-21T12:35:30;101759.84;;;10.33;100.00
80892;BME280;70343;51.530;5.050;2023-11-21T12:37:56;101758.19;;;10.32;100.00
80892;BME280;70343;51.530;5.050;2023-11-21T12:40:25;101755.78;;;10.30;100.00
80892;BME280;70343;51.530;5.050;2023-11-21T12:42:55;101750.72;;;10.29;100.00
80892;BME280;70343;51.530;5.050;2023-11-21T12:45:22;101759.69;;;10.26;100.00
80892;BME280;70343;51.530;5.050;2023-11-21T12:47:52;101769.78;;;10.29;100.00
80892;BME280;70343;51.530;5.050;2023-11-21T12:50:21;101781.84;;;10.22;100.00
80892;BME280;70343;51.530;5.050;2023-11-21T12:52:49;101769.63;;;10.23;100.00
80892;BME280;70343;51.530;5.050;2023-11-21T12:55:22;101778.56;;;10.28;100.00
80892;BME280;70343;51.530;5.050;2023-11-21T12:57:50;101776.97;;;10.27;100.00